sensor_id;sensor_type;location;lat;lon;timestamp;temperature;humidity
24522;DHT22;12680;57.804;12.190;2023-01-19T00:00:05;2.90;99.90
24522;DHT22;12680;57.804;12.190;2023-01-19T00:02:33;2.90;99.90
24522;DHT22;12680;57.804;12.190;2023-01-19T00:05:00;2.80;99.90
24522;DHT22;12680;57.804;12.190;2023-01-19T00:07:28;2.70;99.90
24522;DHT22;12680;57.804;12.190;2023-01-19T00:09:55;2.70;99.90
24522;DHT22;12680;57.804;12.190;2023-01-19T00:12:22;2.60;99.90
24522;DHT22;12680;57.804;12.190;2023-01-19T00:14:49;2.60;99.90
24522;DHT22;12680;57.804;12.190;2023-01-19T00:17:16;2.50;99.90
24522;DHT22;12680;57.804;12.190;2023-01-19T00:19:43;2.50;99.90
24522;DHT22;12680;57.804;12.190;2023-01-19T00:22:10;2.60;99.90
24522;DHT22;12680;57.804;12.190;2023-01-19T00:24:36;2.50;99.90
24522;DHT22;12680;57.804;12.190;2023-01-19T00:27:03;2.50;99.90
24522;DHT22;12680;57.804;12.190;2023-01-19T00:29:30;2.50;99.90
24522;DHT22;12680;57.804;12.190;2023-01-19T00:31:59;2.50;99.90
24522;DHT22;12680;57.804;12.190;2023-01-19T00:34:26;2.50;99.90
24522;DHT22;12680;57.804;12.190;2023-01-19T00:37:03;2.40;99.90
24522;DHT22;12680;57.804;12.190;2023-01-19T00:39:29;2.40;99.90
24522;DHT22;12680;57.804;12.190;2023-01-19T00:41:56;2.40;99.90
24522;DHT22;12680;57.804;12.190;2023-01-19T00:44:42;2.30;99.90
24522;DHT22;12680;57.804;12.190;2023-01-19T00:47:08;2.30;99.90
24522;DHT22;12680;57.804;12.190;2023-01-19T00:49:35;2.30;99.90
24522;DHT22;12680;57.804;12.190;2023-01-19T00:52:02;2.20;99.90
24522;DHT22;12680;57.804;12.190;2023-01-19T00:54:28;2.20;99.90
24522;DHT22;12680;57.804;12.190;2023-01-19T00:56:55;2.20;99.90
24522;DHT22;12680;57.804;12.190;2023-01-19T00:59:22;2.10;99.90
24522;DHT22;12680;57.804;12.190;2023-01-19T01:01:48;2.10;99.90
24522;DHT22;12680;57.804;12.190;2023-01-19T01:04:15;2.00;99.90
24522;DHT22;12680;57.804;12.190;2023-01-19T01:06:42;2.00;99.90
24522;DHT22;12680;57.804;12.190;2023-01-19T01:09:09;2.10;99.90
24522;DHT22;12680;57.804;12.190;2023-01-19T01:11:40;2.10;99.90
24522;DHT22;12680;57.804;12.190;2023-01-19T01:14:10;2.10;99.90
24522;DHT22;12680;57.804;12.190;2023-01-19T01:16:38;2.10;99.90
24522;DHT22;12680;57.804;12.190;2023-01-19T01:19:05;2.10;99.90
24522;DHT22;12680;57.804;12.190;2023-01-19T01:21:32;2.00;99.90
24522;DHT22;12680;57.804;12.190;2023-01-19T01:24:00;2.00;99.90
24522;DHT22;12680;57.804;12.190;2023-01-19T01:26:27;2.00;99.90
24522;DHT22;12680;57.804;12.190;2023-01-19T01:28:54;2.00;99.90
24522;DHT22;12680;57.804;12.190;2023-01-19T01:31:21;2.00;99.90
24522;DHT22;12680;57.804;12.190;2023-01-19T01:33:47;1.90;99.90
24522;DHT22;12680;57.804;12.190;2023-01-19T01:36:14;1.90;99.90
24522;DHT22;12680;57.804;12.190;2023-01-19T01:38:41;1.90;99.90
24522;DHT22;12680;57.804;12.190;2023-01-19T01:41:08;1.90;99.90
24522;DHT22;12680;57.804;12.190;2023-01-19T01:43:48;1.90;99.90
24522;DHT22;12680;57.804;12.190;2023-01-19T01:46:16;1.90;99.90
24522;DHT22;12680;57.804;12.190;2023-01-19T01:48:56;1.80;99.90
24522;DHT22;12680;57.804;12.190;2023-01-19T01:54:20;1.80;99.90
24522;DHT22;12680;57.804;12.190;2023-01-19T01:56:50;1.90;99.90
24522;DHT22;12680;57.804;12.190;2023-01-19T01:59:40;1.90;99.90
24522;DHT22;12680;57.804;12.190;2023-01-19T02:02:20;1.90;99.90
24522;DHT22;12680;57.804;12.190;2023-01-19T02:05:19;1.90;99.90
24522;DHT22;12680;57.804;12.190;2023-01-19T02:08:02;2.00;99.90
24522;DHT22;12680;57.804;12.190;2023-01-19T02:10:48;2.00;99.90
24522;DHT22;12680;57.804;12.190;2023-01-19T02:13:37;1.90;99.90
24522;DHT22;12680;57.804;12.190;2023-01-19T02:16:06;1.90;99.90
24522;DHT22;12680;57.804;12.190;2023-01-19T02:18:34;1.80;99.90
24522;DHT22;12680;57.804;12.190;2023-01-19T02:21:43;1.90;99.90
24522;DHT22;12680;57.804;12.190;2023-01-19T02:24:01;1.80;99.90
24522;DHT22;12680;57.804;12.190;2023-01-19T02:26:32;1.80;99.90
24522;DHT22;12680;57.804;12.190;2023-01-19T02:29:08;1.90;99.90
24522;DHT22;12680;57.804;12.190;2023-01-19T02:31:37;2.00;99.90
24522;DHT22;12680;57.804;12.190;2023-01-19T02:34:07;2.10;99.90
24522;DHT22;12680;57.804;12.190;2023-01-19T02:36:37;2.10;99.90
24522;DHT22;12680;57.804;12.190;2023-01-19T02:39:05;2.10;99.90
24522;DHT22;12680;57.804;12.190;2023-01-19T02:41:43;2.10;99.90
24522;DHT22;12680;57.804;12.190;2023-01-19T02:44:12;2.10;99.90
24522;DHT22;12680;57.804;12.190;2023-01-19T02:46:40;2.20;99.90
24522;DHT22;12680;57.804;12.190;2023-01-19T02:49:07;2.10;99.90
24522;DHT22;12680;57.804;12.190;2023-01-19T02:51:34;2.10;99.90
24522;DHT22;12680;57.804;12.190;2023-01-19T02:57:02;2.10;99.90
24522;DHT22;12680;57.804;12.190;2023-01-19T02:59:54;2.10;99.90
24522;DHT22;12680;57.804;12.190;2023-01-19T03:05:06;2.20;99.90
24522;DHT22;12680;57.804;12.190;2023-01-19T03:10:22;2.20;99.90
24522;DHT22;12680;57.804;12.190;2023-01-19T03:13:12;2.20;99.90
24522;DHT22;12680;57.804;12.190;2023-01-19T03:18:12;2.10;99.90
24522;DHT22;12680;57.804;12.190;2023-01-19T03:20:41;2.10;99.90
24522;DHT22;12680;57.804;12.190;2023-01-19T03:23:10;2.00;99.90
24522;DHT22;12680;57.804;12.190;2023-01-19T03:25:42;2.00;99.90
24522;DHT22;12680;57.804;12.190;2023-01-19T03:28:09;2.00;99.90
24522;DHT22;12680;57.804;12.190;2023-01-19T03:30:45;2.00;99.90
24522;DHT22;12680;57.804;12.190;2023-01-19T03:33:17;1.90;99.90
24522;DHT22;12680;57.804;12.190;2023-01-19T03:35:49;1.80;99.90
24522;DHT22;12680;57.804;12.190;2023-01-19T03:38:21;1.80;99.90
24522;DHT22;12680;57.804;12.190;2023-01-19T03:40:54;1.80;99.90
24522;DHT22;12680;57.804;12.190;2023-01-19T03:43:22;1.70;99.90
24522;DHT22;12680;57.804;12.190;2023-01-19T03:45:50;1.70;99.90
24522;DHT22;12680;57.804;12.190;2023-01-19T03:48:19;1.70;99.90
24522;DHT22;12680;57.804;12.190;2023-01-19T03:50:47;1.60;99.90
24522;DHT22;12680;57.804;12.190;2023-01-19T03:53:16;1.60;99.90
24522;DHT22;12680;57.804;12.190;2023-01-19T03:55:48;1.60;99.90
24522;DHT22;12680;57.804;12.190;2023-01-19T03:58:16;1.60;99.90
24522;DHT22;12680;57.804;12.190;2023-01-19T04:00:43;1.60;99.90
24522;DHT22;12680;57.804;12.190;2023-01-19T04:03:13;1.60;99.90
24522;DHT22;12680;57.804;12.190;2023-01-19T04:05:41;1.60;99.90
24522;DHT22;12680;57.804;12.190;2023-01-19T04:08:08;1.60;99.90
24522;DHT22;12680;57.804;12.190;2023-01-19T04:10:36;1.60;99.90
24522;DHT22;12680;57.804;12.190;2023-01-19T04:13:03;1.60;99.90
24522;DHT22;12680;57.804;12.190;2023-01-19T04:15:31;1.70;99.90
24522;DHT22;12680;57.804;12.190;2023-01-19T04:17:59;1.70;99.90
24522;DHT22;12680;57.804;12.190;2023-01-19T04:20:27;1.60;99.90
24522;DHT22;12680;57.804;12.190;2023-01-19T04:22:54;1.70;99.90
24522;DHT22;12680;57.804;12.190;2023-01-19T04:25:24;1.60;99.90
24522;DHT22;12680;57.804;12.190;2023-01-19T04:27:52;1.60;99.90
24522;DHT22;12680;57.804;12.190;2023-01-19T04:30:19;1.50;99.90
24522;DHT22;12680;57.804;12.190;2023-01-19T04:32:45;1.50;99.90
24522;DHT22;12680;57.804;12.190;2023-01-19T04:35:12;1.50;99.90
24522;DHT22;12680;57.804;12.190;2023-01-19T04:37:39;1.50;99.90
24522;DHT22;12680;57.804;12.190;2023-01-19T04:40:06;1.50;99.90
24522;DHT22;12680;57.804;12.190;2023-01-19T04:42:33;1.50;99.90
24522;DHT22;12680;57.804;12.190;2023-01-19T04:45:00;1.40;99.90
24522;DHT22;12680;57.804;12.190;2023-01-19T04:47:26;1.50;99.90
24522;DHT22;12680;57.804;12.190;2023-01-19T04:49:53;1.60;99.90
24522;DHT22;12680;57.804;12.190;2023-01-19T04:52:20;1.60;99.90
24522;DHT22;12680;57.804;12.190;2023-01-19T04:54:47;1.70;99.90
24522;DHT22;12680;57.804;12.190;2023-01-19T04:57:13;1.60;99.90
24522;DHT22;12680;57.804;12.190;2023-01-19T04:59:40;1.50;99.90
24522;DHT22;12680;57.804;12.190;2023-01-19T05:02:07;1.50;99.90
24522;DHT22;12680;57.804;12.190;2023-01-19T05:04:34;1.40;99.90
24522;DHT22;12680;57.804;12.190;2023-01-19T05:07:01;1.40;99.90
24522;DHT22;12680;57.804;12.190;2023-01-19T05:09:28;1.50;99.90
24522;DHT22;12680;57.804;12.190;2023-01-19T05:11:54;1.40;99.90
24522;DHT22;12680;57.804;12.190;2023-01-19T05:14:21;1.40;99.90
24522;DHT22;12680;57.804;12.190;2023-01-19T05:16:48;1.40;99.90
24522;DHT22;12680;57.804;12.190;2023-01-19T05:19:15;1.40;99.90
24522;DHT22;12680;57.804;12.190;2023-01-19T05:21:41;1.40;99.90
24522;DHT22;12680;57.804;12.190;2023-01-19T05:24:08;1.30;99.90
24522;DHT22;12680;57.804;12.190;2023-01-19T05:26:35;1.30;99.90
24522;DHT22;12680;57.804;12.190;2023-01-19T05:29:01;1.40;99.90
24522;DHT22;12680;57.804;12.190;2023-01-19T05:31:28;1.40;99.90
24522;DHT22;12680;57.804;12.190;2023-01-19T05:33:55;1.30;99.90
24522;DHT22;12680;57.804;12.190;2023-01-19T05:36:22;1.30;99.90
24522;DHT22;12680;57.804;12.190;2023-01-19T05:38:49;1.30;99.90
24522;DHT22;12680;57.804;12.190;2023-01-19T05:41:16;1.30;99.90
24522;DHT22;12680;57.804;12.190;2023-01-19T05:43:43;1.30;99.90
24522;DHT22;12680;57.804;12.190;2023-01-19T05:46:10;1.20;99.90
24522;DHT22;12680;57.804;12.190;2023-01-19T05:48:37;1.20;99.90
24522;DHT22;12680;57.804;12.190;2023-01-19T05:51:04;1.20;99.90
24522;DHT22;12680;57.804;12.190;2023-01-19T05:53:32;1.10;99.90
24522;DHT22;12680;57.804;12.190;2023-01-19T05:56:00;1.10;99.90
24522;DHT22;12680;57.804;12.190;2023-01-19T05:58:27;1.00;99.90
24522;DHT22;12680;57.804;12.190;2023-01-19T06:00:54;1.00;99.90
24522;DHT22;12680;57.804;12.190;2023-01-19T06:03:21;1.00;99.90
24522;DHT22;12680;57.804;12.190;2023-01-19T06:05:47;1.00;99.90
24522;DHT22;12680;57.804;12.190;2023-01-19T06:08:14;1.00;99.90
24522;DHT22;12680;57.804;12.190;2023-01-19T06:10:41;0.90;99.90
24522;DHT22;12680;57.804;12.190;2023-01-19T06:13:07;0.90;99.90
24522;DHT22;12680;57.804;12.190;2023-01-19T06:15:36;0.90;99.90
24522;DHT22;12680;57.804;12.190;2023-01-19T06:18:03;0.90;99.90
24522;DHT22;12680;57.804;12.190;2023-01-19T06:20:30;0.90;99.90
24522;DHT22;12680;57.804;12.190;2023-01-19T06:22:57;0.90;99.90
24522;DHT22;12680;57.804;12.190;2023-01-19T06:25:24;0.80;99.90
24522;DHT22;12680;57.804;12.190;2023-01-19T06:27:51;0.80;99.90
24522;DHT22;12680;57.804;12.190;2023-01-19T06:30:18;0.80;99.90
24522;DHT22;12680;57.804;12.190;2023-01-19T06:32:44;0.80;99.90
24522;DHT22;12680;57.804;12.190;2023-01-19T06:35:12;0.80;99.90
24522;DHT22;12680;57.804;12.190;2023-01-19T06:37:39;0.80;99.90
24522;DHT22;12680;57.804;12.190;2023-01-19T06:40:06;0.90;99.90
24522;DHT22;12680;57.804;12.190;2023-01-19T06:42:33;1.00;99.90
24522;DHT22;12680;57.804;12.190;2023-01-19T06:45:00;1.20;99.90
24522;DHT22;12680;57.804;12.190;2023-01-19T06:47:26;1.20;99.90
24522;DHT22;12680;57.804;12.190;2023-01-19T06:49:53;1.30;99.90
24522;DHT22;12680;57.804;12.190;2023-01-19T06:52:20;1.30;99.90
24522;DHT22;12680;57.804;12.190;2023-01-19T06:54:47;1.30;99.90
24522;DHT22;12680;57.804;12.190;2023-01-19T06:57:15;1.20;99.90
24522;DHT22;12680;57.804;12.190;2023-01-19T06:59:42;1.20;99.90
24522;DHT22;12680;57.804;12.190;2023-01-19T07:02:09;1.10;99.90
24522;DHT22;12680;57.804;12.190;2023-01-19T07:04:54;1.10;99.90
24522;DHT22;12680;57.804;12.190;2023-01-19T07:07:21;1.10;99.90
24522;DHT22;12680;57.804;12.190;2023-01-19T07:09:47;1.00;99.90
24522;DHT22;12680;57.804;12.190;2023-01-19T07:12:19;1.00;99.90
24522;DHT22;12680;57.804;12.190;2023-01-19T07:14:45;1.00;99.90
24522;DHT22;12680;57.804;12.190;2023-01-19T07:17:14;1.10;99.90
24522;DHT22;12680;57.804;12.190;2023-01-19T07:19:41;1.10;99.90
24522;DHT22;12680;57.804;12.190;2023-01-19T07:22:08;1.10;99.90
24522;DHT22;12680;57.804;12.190;2023-01-19T07:24:34;1.20;99.90
24522;DHT22;12680;57.804;12.190;2023-01-19T07:27:03;1.30;99.90
24522;DHT22;12680;57.804;12.190;2023-01-19T07:29:31;1.40;99.90
24522;DHT22;12680;57.804;12.190;2023-01-19T07:31:57;1.50;99.90
24522;DHT22;12680;57.804;12.190;2023-01-19T07:34:24;1.60;99.90
24522;DHT22;12680;57.804;12.190;2023-01-19T07:36:51;1.70;99.90
24522;DHT22;12680;57.804;12.190;2023-01-19T07:39:17;1.70;99.90
24522;DHT22;12680;57.804;12.190;2023-01-19T07:41:46;1.80;99.90
24522;DHT22;12680;57.804;12.190;2023-01-19T07:44:13;1.90;99.90
24522;DHT22;12680;57.804;12.190;2023-01-19T07:46:39;1.90;99.90
24522;DHT22;12680;57.804;12.190;2023-01-19T07:49:07;1.90;99.90
24522;DHT22;12680;57.804;12.190;2023-01-19T07:51:34;2.00;99.90
24522;DHT22;12680;57.804;12.190;2023-01-19T07:54:01;2.00;99.90
24522;DHT22;12680;57.804;12.190;2023-01-19T07:56:28;2.00;99.90
24522;DHT22;12680;57.804;12.190;2023-01-19T07:58:59;2.00;99.90
24522;DHT22;12680;57.804;12.190;2023-01-19T08:01:25;2.10;99.90
24522;DHT22;12680;57.804;12.190;2023-01-19T08:03:52;2.10;99.90
24522;DHT22;12680;57.804;12.190;2023-01-19T08:06:25;2.20;99.90
24522;DHT22;12680;57.804;12.190;2023-01-19T08:08:52;2.20;99.90
24522;DHT22;12680;57.804;12.190;2023-01-19T08:11:19;2.20;99.90
24522;DHT22;12680;57.804;12.190;2023-01-19T08:13:46;2.20;99.90
24522;DHT22;12680;57.804;12.190;2023-01-19T08:16:13;2.20;99.90
24522;DHT22;12680;57.804;12.190;2023-01-19T08:18:39;2.20;99.90
24522;DHT22;12680;57.804;12.190;2023-01-19T08:21:06;2.20;99.90
24522;DHT22;12680;57.804;12.190;2023-01-19T08:23:33;2.20;99.90
24522;DHT22;12680;57.804;12.190;2023-01-19T08:26:00;2.30;99.90
24522;DHT22;12680;57.804;12.190;2023-01-19T08:28:27;2.30;99.90
24522;DHT22;12680;57.804;12.190;2023-01-19T08:30:53;2.30;99.90
24522;DHT22;12680;57.804;12.190;2023-01-19T08:33:21;2.30;99.90
24522;DHT22;12680;57.804;12.190;2023-01-19T08:35:51;2.30;99.90
24522;DHT22;12680;57.804;12.190;2023-01-19T08:38:18;2.30;99.90
24522;DHT22;12680;57.804;12.190;2023-01-19T08:40:44;2.30;99.90
24522;DHT22;12680;57.804;12.190;2023-01-19T08:43:13;2.30;99.90
24522;DHT22;12680;57.804;12.190;2023-01-19T08:45:44;2.30;99.90
24522;DHT22;12680;57.804;12.190;2023-01-19T08:48:17;2.30;99.90
24522;DHT22;12680;57.804;12.190;2023-01-19T08:50:45;2.30;99.90
24522;DHT22;12680;57.804;12.190;2023-01-19T08:53:13;2.40;99.90
24522;DHT22;12680;57.804;12.190;2023-01-19T08:55:40;2.40;99.90
24522;DHT22;12680;57.804;12.190;2023-01-19T08:58:07;2.40;99.90
24522;DHT22;12680;57.804;12.190;2023-01-19T09:00:36;2.50;99.90
24522;DHT22;12680;57.804;12.190;2023-01-19T09:03:08;2.60;99.90
24522;DHT22;12680;57.804;12.190;2023-01-19T09:05:37;2.70;99.90
24522;DHT22;12680;57.804;12.190;2023-01-19T09:08:07;2.70;99.90
24522;DHT22;12680;57.804;12.190;2023-01-19T09:10:35;2.70;99.90
24522;DHT22;12680;57.804;12.190;2023-01-19T09:13:04;2.70;99.90
24522;DHT22;12680;57.804;12.190;2023-01-19T09:15:33;2.70;99.90
24522;DHT22;12680;57.804;12.190;2023-01-19T09:18:06;2.70;99.90
24522;DHT22;12680;57.804;12.190;2023-01-19T09:20:33;2.70;99.90
24522;DHT22;12680;57.804;12.190;2023-01-19T09:23:01;2.70;99.90
24522;DHT22;12680;57.804;12.190;2023-01-19T09:25:28;2.70;99.90
24522;DHT22;12680;57.804;12.190;2023-01-19T09:27:55;2.70;99.90
24522;DHT22;12680;57.804;12.190;2023-01-19T09:30:22;2.60;99.90
24522;DHT22;12680;57.804;12.190;2023-01-19T09:32:48;2.60;99.90
24522;DHT22;12680;57.804;12.190;2023-01-19T09:35:15;2.60;99.90
24522;DHT22;12680;57.804;12.190;2023-01-19T09:37:46;2.60;99.90
24522;DHT22;12680;57.804;12.190;2023-01-19T09:40:14;2.60;99.90
24522;DHT22;12680;57.804;12.190;2023-01-19T09:42:44;2.60;99.90
24522;DHT22;12680;57.804;12.190;2023-01-19T09:45:17;2.60;99.90
24522;DHT22;12680;57.804;12.190;2023-01-19T09:47:46;2.70;99.90
24522;DHT22;12680;57.804;12.190;2023-01-19T09:52:56;2.70;99.90
24522;DHT22;12680;57.804;12.190;2023-01-19T09:55:25;2.70;99.90
24522;DHT22;12680;57.804;12.190;2023-01-19T09:57:52;2.70;99.90
24522;DHT22;12680;57.804;12.190;2023-01-19T10:00:19;2.80;99.90
24522;DHT22;12680;57.804;12.190;2023-01-19T10:02:52;2.80;99.90
24522;DHT22;12680;57.804;12.190;2023-01-19T10:05:26;2.70;99.90
24522;DHT22;12680;57.804;12.190;2023-01-19T10:10:35;2.70;99.90
24522;DHT22;12680;57.804;12.190;2023-01-19T10:18:43;2.70;99.90
24522;DHT22;12680;57.804;12.190;2023-01-19T10:21:26;2.70;99.90
24522;DHT22;12680;57.804;12.190;2023-01-19T10:24:10;2.70;99.90
24522;DHT22;12680;57.804;12.190;2023-01-19T10:26:52;2.70;99.90
24522;DHT22;12680;57.804;12.190;2023-01-19T10:29:32;2.80;99.90
24522;DHT22;12680;57.804;12.190;2023-01-19T10:32:10;2.80;99.90
24522;DHT22;12680;57.804;12.190;2023-01-19T10:34:38;2.90;99.90
24522;DHT22;12680;57.804;12.190;2023-01-19T10:39:51;2.90;99.90
24522;DHT22;12680;57.804;12.190;2023-01-19T10:42:19;2.90;99.90
24522;DHT22;12680;57.804;12.190;2023-01-19T10:44:46;2.90;99.90
24522;DHT22;12680;57.804;12.190;2023-01-19T10:47:19;2.90;99.90
24522;DHT22;12680;57.804;12.190;2023-01-19T10:49:46;2.90;99.90
24522;DHT22;12680;57.804;12.190;2023-01-19T10:52:36;3.00;99.90
24522;DHT22;12680;57.804;12.190;2023-01-19T10:55:07;3.00;99.90
24522;DHT22;12680;57.804;12.190;2023-01-19T10:57:48;3.10;99.90
24522;DHT22;12680;57.804;12.190;2023-01-19T11:02:55;3.10;99.90
24522;DHT22;12680;57.804;12.190;2023-01-19T11:05:27;3.10;99.90
24522;DHT22;12680;57.804;12.190;2023-01-19T11:07:54;3.10;99.90
24522;DHT22;12680;57.804;12.190;2023-01-19T11:10:26;3.10;99.90
24522;DHT22;12680;57.804;12.190;2023-01-19T11:15:33;3.10;99.90
24522;DHT22;12680;57.804;12.190;2023-01-19T11:18:02;3.10;99.90
24522;DHT22;12680;57.804;12.190;2023-01-19T11:20:51;3.10;99.90
24522;DHT22;12680;57.804;12.190;2023-01-19T11:23:27;3.00;99.90
24522;DHT22;12680;57.804;12.190;2023-01-19T11:25:59;3.00;99.90
24522;DHT22;12680;57.804;12.190;2023-01-19T11:28:33;3.00;99.90
24522;DHT22;12680;57.804;12.190;2023-01-19T11:31:01;3.00;99.90
24522;DHT22;12680;57.804;12.190;2023-01-19T11:38:57;3.00;99.90
24522;DHT22;12680;57.804;12.190;2023-01-19T11:41:27;3.10;99.90
24522;DHT22;12680;57.804;12.190;2023-01-19T11:43:57;3.10;99.90
24522;DHT22;12680;57.804;12.190;2023-01-19T11:46:30;3.10;99.90
24522;DHT22;12680;57.804;12.190;2023-01-19T11:49:02;3.10;99.90
24522;DHT22;12680;57.804;12.190;2023-01-19T11:51:33;3.10;99.90
24522;DHT22;12680;57.804;12.190;2023-01-19T11:54:11;3.20;99.90
24522;DHT22;12680;57.804;12.190;2023-01-19T11:56:39;3.20;99.90
24522;DHT22;12680;57.804;12.190;2023-01-19T11:59:10;3.20;99.90
24522;DHT22;12680;57.804;12.190;2023-01-19T12:01:45;3.20;99.90
24522;DHT22;12680;57.804;12.190;2023-01-19T12:04:31;3.20;99.90
24522;DHT22;12680;57.804;12.190;2023-01-19T12:07:03;3.30;99.90
24522;DHT22;12680;57.804;12.190;2023-01-19T12:09:38;3.30;99.90
24522;DHT22;12680;57.804;12.190;2023-01-19T12:12:25;3.30;99.90
24522;DHT22;12680;57.804;12.190;2023-01-19T12:17:47;3.40;99.90
24522;DHT22;12680;57.804;12.190;2023-01-19T12:20:27;3.30;99.90
24522;DHT22;12680;57.804;12.190;2023-01-19T12:28:45;3.30;99.90
24522;DHT22;12680;57.804;12.190;2023-01-19T12:31:17;3.40;99.90
24522;DHT22;12680;57.804;12.190;2023-01-19T12:33:45;3.40;99.90
24522;DHT22;12680;57.804;12.190;2023-01-19T12:39:03;3.40;99.90
24522;DHT22;12680;57.804;12.190;2023-01-19T12:41:35;3.40;99.90
24522;DHT22;12680;57.804;12.190;2023-01-19T12:49:43;3.30;99.90
24522;DHT22;12680;57.804;12.190;2023-01-19T12:52:32;3.20;99.90
24522;DHT22;12680;57.804;12.190;2023-01-19T12:55:15;3.20;99.90
24522;DHT22;12680;57.804;12.190;2023-01-19T12:57:53;3.30;99.90
24522;DHT22;12680;57.804;12.190;2023-01-19T13:18:45;3.10;99.90
24522;DHT22;12680;57.804;12.190;2023-01-19T13:26:27;3.10;99.90
24522;DHT22;12680;57.804;12.190;2023-01-19T13:29:07;3.10;99.90
24522;DHT22;12680;57.804;12.190;2023-01-19T13:31:39;3.10;99.90
24522;DHT22;12680;57.804;12.190;2023-01-19T13:34:16;3.20;99.90
24522;DHT22;12680;57.804;12.190;2023-01-19T13:36:46;3.10;99.90
24522;DHT22;12680;57.804;12.190;2023-01-19T13:39:26;3.10;99.90
24522;DHT22;12680;57.804;12.190;2023-01-19T13:41:57;3.10;99.90
24522;DHT22;12680;57.804;12.190;2023-01-19T13:46:57;3.10;99.90
24522;DHT22;12680;57.804;12.190;2023-01-19T13:49:35;3.10;99.90
24522;DHT22;12680;57.804;12.190;2023-01-19T13:54:53;3.10;99.90
24522;DHT22;12680;57.804;12.190;2023-01-19T13:57:40;3.10;99.90
24522;DHT22;12680;57.804;12.190;2023-01-19T14:05:30;3.10;99.90
24522;DHT22;12680;57.804;12.190;2023-01-19T14:13:26;3.10;99.90
24522;DHT22;12680;57.804;12.190;2023-01-19T14:15:58;3.10;99.90
24522;DHT22;12680;57.804;12.190;2023-01-19T14:18:28;3.10;99.90
24522;DHT22;12680;57.804;12.190;2023-01-19T14:21:07;3.10;99.90
24522;DHT22;12680;57.804;12.190;2023-01-19T14:23:52;3.10;99.90
24522;DHT22;12680;57.804;12.190;2023-01-19T14:26:40;3.20;99.90
24522;DHT22;12680;57.804;12.190;2023-01-19T14:29:25;3.20;99.90
24522;DHT22;12680;57.804;12.190;2023-01-19T14:37:22;3.40;99.90
24522;DHT22;12680;57.804;12.190;2023-01-19T14:42:47;3.30;99.90
24522;DHT22;12680;57.804;12.190;2023-01-19T14:47:58;3.40;99.90
24522;DHT22;12680;57.804;12.190;2023-01-19T14:50:46;3.40;99.90
24522;DHT22;12680;57.804;12.190;2023-01-19T14:53:32;3.30;99.90
24522;DHT22;12680;57.804;12.190;2023-01-19T14:56:00;3.20;99.90
24522;DHT22;12680;57.804;12.190;2023-01-19T14:58:31;3.20;99.90
24522;DHT22;12680;57.804;12.190;2023-01-19T15:00:58;3.10;99.90
24522;DHT22;12680;57.804;12.190;2023-01-19T15:03:26;3.10;99.90
24522;DHT22;12680;57.804;12.190;2023-01-19T15:06:16;3.10;99.90
24522;DHT22;12680;57.804;12.190;2023-01-19T15:08:44;3.10;99.90
24522;DHT22;12680;57.804;12.190;2023-01-19T15:11:18;3.10;99.90
24522;DHT22;12680;57.804;12.190;2023-01-19T15:13:47;3.10;99.90
24522;DHT22;12680;57.804;12.190;2023-01-19T15:16:14;3.10;99.90
24522;DHT22;12680;57.804;12.190;2023-01-19T15:18:41;3.10;99.90
24522;DHT22;12680;57.804;12.190;2023-01-19T15:21:14;3.10;99.90
24522;DHT22;12680;57.804;12.190;2023-01-19T15:23:41;3.10;99.90
24522;DHT22;12680;57.804;12.190;2023-01-19T15:26:14;3.20;99.90
24522;DHT22;12680;57.804;12.190;2023-01-19T15:28:41;3.20;99.90
24522;DHT22;12680;57.804;12.190;2023-01-19T15:31:14;3.20;99.90
24522;DHT22;12680;57.804;12.190;2023-01-19T15:33:41;3.30;99.90
24522;DHT22;12680;57.804;12.190;2023-01-19T15:36:12;3.30;99.90
24522;DHT22;12680;57.804;12.190;2023-01-19T15:38:43;3.30;99.90
24522;DHT22;12680;57.804;12.190;2023-01-19T15:41:26;3.30;99.90
24522;DHT22;12680;57.804;12.190;2023-01-19T15:43:55;3.30;99.90
24522;DHT22;12680;57.804;12.190;2023-01-19T15:46:23;3.30;99.90
24522;DHT22;12680;57.804;12.190;2023-01-19T15:48:51;3.30;99.90
24522;DHT22;12680;57.804;12.190;2023-01-19T15:51:21;3.30;99.90
24522;DHT22;12680;57.804;12.190;2023-01-19T15:53:49;3.30;99.90
24522;DHT22;12680;57.804;12.190;2023-01-19T15:56:29;3.30;99.90
24522;DHT22;12680;57.804;12.190;2023-01-19T15:58:57;3.40;99.90
24522;DHT22;12680;57.804;12.190;2023-01-19T16:01:26;3.40;99.90
24522;DHT22;12680;57.804;12.190;2023-01-19T16:03:58;3.40;99.90
24522;DHT22;12680;57.804;12.190;2023-01-19T16:06:27;3.40;99.90
24522;DHT22;12680;57.804;12.190;2023-01-19T16:08:55;3.50;99.90
24522;DHT22;12680;57.804;12.190;2023-01-19T16:11:29;3.50;99.90
24522;DHT22;12680;57.804;12.190;2023-01-19T16:13:57;3.50;99.90
24522;DHT22;12680;57.804;12.190;2023-01-19T16:16:25;3.50;99.90
24522;DHT22;12680;57.804;12.190;2023-01-19T16:18:52;3.60;99.90
24522;DHT22;12680;57.804;12.190;2023-01-19T16:21:18;3.60;99.90
24522;DHT22;12680;57.804;12.190;2023-01-19T16:23:45;3.60;99.90
24522;DHT22;12680;57.804;12.190;2023-01-19T16:26:32;3.60;99.90
24522;DHT22;12680;57.804;12.190;2023-01-19T16:29:02;3.60;99.90
24522;DHT22;12680;57.804;12.190;2023-01-19T16:31:33;3.70;99.90
24522;DHT22;12680;57.804;12.190;2023-01-19T16:34:00;3.70;99.90
24522;DHT22;12680;57.804;12.190;2023-01-19T16:36:29;3.70;99.90
24522;DHT22;12680;57.804;12.190;2023-01-19T16:39:01;3.70;99.90
24522;DHT22;12680;57.804;12.190;2023-01-19T16:41:28;3.70;99.90
24522;DHT22;12680;57.804;12.190;2023-01-19T16:43:56;3.70;99.90
24522;DHT22;12680;57.804;12.190;2023-01-19T16:46:26;3.70;99.90
24522;DHT22;12680;57.804;12.190;2023-01-19T16:48:58;3.80;99.90
24522;DHT22;12680;57.804;12.190;2023-01-19T16:51:25;3.80;99.90
24522;DHT22;12680;57.804;12.190;2023-01-19T16:53:51;3.90;99.90
24522;DHT22;12680;57.804;12.190;2023-01-19T16:56:18;3.90;99.90
24522;DHT22;12680;57.804;12.190;2023-01-19T16:58:45;4.00;99.90
24522;DHT22;12680;57.804;12.190;2023-01-19T17:01:14;4.00;99.90
24522;DHT22;12680;57.804;12.190;2023-01-19T17:03:45;4.00;99.90
24522;DHT22;12680;57.804;12.190;2023-01-19T17:06:14;4.00;99.90
24522;DHT22;12680;57.804;12.190;2023-01-19T17:08:43;4.40;99.90
24522;DHT22;12680;57.804;12.190;2023-01-19T17:11:18;3.90;99.90
24522;DHT22;12680;57.804;12.190;2023-01-19T17:13:52;3.90;99.90
24522;DHT22;12680;57.804;12.190;2023-01-19T17:16:20;3.90;99.90
24522;DHT22;12680;57.804;12.190;2023-01-19T17:18:47;3.90;99.90
24522;DHT22;12680;57.804;12.190;2023-01-19T17:21:15;3.90;99.90
24522;DHT22;12680;57.804;12.190;2023-01-19T17:23:46;3.80;99.90
24522;DHT22;12680;57.804;12.190;2023-01-19T17:26:14;3.70;99.90
24522;DHT22;12680;57.804;12.190;2023-01-19T17:28:41;3.70;99.90
24522;DHT22;12680;57.804;12.190;2023-01-19T17:31:11;3.70;99.90
24522;DHT22;12680;57.804;12.190;2023-01-19T17:33:39;3.60;99.90